Terminal Aerodrome Forecast
Issued by NWS

Home | Current Version | Previous Version | Text Only | Print | Product List | Glossary On
Versions: 1 2 3 4 5 6 7 8 9 10 11 12 13 14 15 16 17 18 19
000
FTUS41 KBOX 232344
TAFHYA
TAF
KHYA 232344Z 2400/2424 06024G41KT 4SM -RA OVC009
     FM240200 06025G45KT 3SM RA OVC008
     FM240500 07027G46KT 3SM RA OVC008 WS020/08055KT
     FM240600 07028G47KT 3SM +RA OVC008 WS020/08060KT
     FM241000 08026G43KT 2SM +RA OVC008
     FM241200 09020G33KT 2SM -RA OVC008
     FM241400 09014G24KT 2SM -RA OVC008
     FM242200 07004KT 5SM BR VCSH OVC008=

USA.gov is the U.S. government's official web portal to all federal, state and local government web resources and services.